createdAt,value
2022-12-11T00:01:14.283Z,20.17
2022-12-11T00:03:43.149Z,20.18
2022-12-11T00:06:15.016Z,20.18
2022-12-11T00:08:44.136Z,20.16
2022-12-11T00:11:14.225Z,20.15
2022-12-11T00:13:43.006Z,20.15
2022-12-11T00:16:12.394Z,20.14
2022-12-11T00:18:41.151Z,20.14
2022-12-11T00:21:14.595Z,20.13
2022-12-11T00:23:43.590Z,20.12
2022-12-11T00:26:15.726Z,20.12
2022-12-11T00:28:45.239Z,20.12
2022-12-11T00:31:15.977Z,20.11
2022-12-11T00:33:45.026Z,20.09
2022-12-11T00:36:17.130Z,20.12
2022-12-11T00:38:45.689Z,20.12
2022-12-11T00:41:14.153Z,20.11
2022-12-11T00:43:42.919Z,20.08
2022-12-11T00:46:11.579Z,20.12
2022-12-11T00:48:40.407Z,20.11
2022-12-11T00:51:09.018Z,20.12
2022-12-11T00:53:39.084Z,20.10
2022-12-11T00:56:12.524Z,20.11
2022-12-11T00:58:41.101Z,20.10
2022-12-11T01:01:11.234Z,20.10
2022-12-11T01:03:39.852Z,20.10
2022-12-11T01:06:09.587Z,20.10
2022-12-11T01:08:39.439Z,20.10
2022-12-11T01:11:10.068Z,20.09
2022-12-11T01:13:39.584Z,20.09
2022-12-11T01:16:09.837Z,20.09
2022-12-11T01:18:38.719Z,20.10
2022-12-11T01:21:08.151Z,20.09
2022-12-11T01:23:37.227Z,20.09
2022-12-11T01:26:08.850Z,20.07
2022-12-11T01:28:37.698Z,20.08
2022-12-11T01:31:09.938Z,20.08
2022-12-11T01:33:38.783Z,20.08
2022-12-11T01:36:11.492Z,20.07
2022-12-11T01:38:40.029Z,20.07
2022-12-11T01:41:10.763Z,20.07
2022-12-11T01:43:57.711Z,20.06
2022-12-11T01:46:26.973Z,20.06
2022-12-11T01:48:56.765Z,20.06
2022-12-11T01:51:25.675Z,20.06
2022-12-11T01:53:59.976Z,20.05
2022-12-11T01:56:33.367Z,20.05
2022-12-11T01:59:07.304Z,20.03
2022-12-11T02:01:40.626Z,20.04
2022-12-11T02:04:10.938Z,20.04
2022-12-11T02:06:41.394Z,20.03
2022-12-11T02:09:13.073Z,20.02
2022-12-11T02:11:53.856Z,20.03
2022-12-11T02:14:30.523Z,20.03
2022-12-11T02:17:05.647Z,20.02
2022-12-11T02:19:46.348Z,20.01
2022-12-11T02:22:22.871Z,20.01
2022-12-11T02:25:04.371Z,19.99
2022-12-11T02:27:39.086Z,20.00
2022-12-11T02:30:11.399Z,19.99
2022-12-11T02:32:44.347Z,19.99
2022-12-11T02:35:18.996Z,19.99
2022-12-11T02:37:50.013Z,19.99
2022-12-11T02:40:22.612Z,19.99
2022-12-11T02:42:53.168Z,19.98
2022-12-11T02:45:25.295Z,19.97
2022-12-11T02:47:54.043Z,19.97
2022-12-11T02:50:24.413Z,19.98
2022-12-11T02:52:56.793Z,19.97
2022-12-11T02:55:28.251Z,19.96
2022-12-11T02:58:03.290Z,19.97
2022-12-11T03:00:33.342Z,19.97
2022-12-11T03:03:03.221Z,19.93
2022-12-11T03:05:32.453Z,19.94
2022-12-11T03:08:00.954Z,19.96
2022-12-11T03:10:29.424Z,19.94
2022-12-11T03:13:00.241Z,19.95
2022-12-11T03:15:35.927Z,19.94
2022-12-11T03:18:10.399Z,19.95
2022-12-11T03:20:42.320Z,19.94
2022-12-11T03:23:21.063Z,19.94
2022-12-11T03:25:55.316Z,19.93
2022-12-11T03:28:30.339Z,19.93
2022-12-11T03:31:05.444Z,19.93
2022-12-11T03:33:37.389Z,19.92
2022-12-11T03:36:10.886Z,19.92
2022-12-11T03:38:45.374Z,19.92
2022-12-11T03:41:18.060Z,19.91
2022-12-11T03:43:47.746Z,19.92
2022-12-11T03:46:19.268Z,19.91
2022-12-11T03:48:50.626Z,19.91
2022-12-11T03:51:19.416Z,19.90
2022-12-11T03:53:48.816Z,19.89
2022-12-11T03:56:20.556Z,19.90
2022-12-11T03:58:49.016Z,19.89
2022-12-11T04:01:19.302Z,19.90
2022-12-11T04:03:47.737Z,19.89
2022-12-11T04:06:16.179Z,19.89
2022-12-11T04:08:44.587Z,19.89
2022-12-11T04:11:30.459Z,19.89
2022-12-11T04:14:16.460Z,19.89
2022-12-11T04:16:46.267Z,19.89
2022-12-11T04:19:32.432Z,19.87
2022-12-11T04:22:18.691Z,19.87
2022-12-11T04:24:48.847Z,19.87
2022-12-11T04:27:38.168Z,19.87
2022-12-11T04:30:11.468Z,19.86
2022-12-11T04:32:41.369Z,19.87
2022-12-11T04:35:11.141Z,19.86
2022-12-11T04:37:40.231Z,19.86
2022-12-11T04:40:11.654Z,19.86
2022-12-11T04:42:40.056Z,19.86
2022-12-11T04:45:10.159Z,19.85
2022-12-11T04:47:41.985Z,19.85
2022-12-11T04:50:12.818Z,19.85
2022-12-11T04:52:41.418Z,19.84
2022-12-11T04:55:11.249Z,19.84
2022-12-11T04:57:39.894Z,19.83
2022-12-11T05:00:11.947Z,19.81
2022-12-11T05:02:43.327Z,19.83
2022-12-11T05:05:13.052Z,19.83
2022-12-11T05:07:42.006Z,19.84
2022-12-11T05:10:11.248Z,19.83
2022-12-11T05:12:39.944Z,19.83
2022-12-11T05:15:09.785Z,19.83
2022-12-11T05:17:38.880Z,19.83
2022-12-11T05:20:10.470Z,19.83
2022-12-11T05:22:39.460Z,19.82
2022-12-11T05:25:08.980Z,19.82
2022-12-11T05:27:37.786Z,19.82
2022-12-11T05:30:07.478Z,19.82
2022-12-11T05:32:35.867Z,19.82
2022-12-11T05:35:04.678Z,19.81
2022-12-11T05:37:35.516Z,19.82
2022-12-11T05:40:06.159Z,19.82
2022-12-11T05:42:34.674Z,19.84
2022-12-11T05:45:03.438Z,19.89
2022-12-11T05:47:32.468Z,19.93
2022-12-11T05:50:00.851Z,19.99
2022-12-11T05:52:29.283Z,20.07
2022-12-11T05:54:59.093Z,20.13
2022-12-11T05:57:27.479Z,20.19
2022-12-11T05:59:55.957Z,20.30
2022-12-11T06:02:24.522Z,20.35
2022-12-11T06:04:52.974Z,20.45
2022-12-11T06:07:21.417Z,20.48
2022-12-11T06:09:49.791Z,20.55
2022-12-11T06:12:19.746Z,20.56
2022-12-11T06:14:48.155Z,20.61
2022-12-11T06:17:16.606Z,20.61
2022-12-11T06:19:44.969Z,20.61
2022-12-11T06:22:13.361Z,20.61
2022-12-11T06:24:41.776Z,20.59
2022-12-11T06:27:10.226Z,20.66
2022-12-11T06:29:40.040Z,20.66
2022-12-11T06:32:08.504Z,20.67
2022-12-11T06:34:36.932Z,20.69
2022-12-11T06:37:05.464Z,20.69
2022-12-11T06:39:33.939Z,20.69
2022-12-11T06:42:02.398Z,20.69
2022-12-11T06:44:30.865Z,20.69
2022-12-11T06:47:00.711Z,20.70
2022-12-11T06:49:29.224Z,20.69
2022-12-11T06:51:58.525Z,20.70
2022-12-11T06:54:27.735Z,20.72
2022-12-11T06:56:56.231Z,20.72
2022-12-11T06:59:24.819Z,20.72
2022-12-11T07:01:53.266Z,20.73
2022-12-11T07:04:24.639Z,20.73
2022-12-11T07:06:53.348Z,20.73
2022-12-11T07:09:22.831Z,20.72
2022-12-11T07:11:51.640Z,20.71
2022-12-11T07:14:20.317Z,20.72
2022-12-11T07:16:48.818Z,20.71
2022-12-11T07:19:17.556Z,20.71
2022-12-11T07:21:47.400Z,20.71
2022-12-11T07:24:15.884Z,20.72
2022-12-11T07:26:44.344Z,20.71
2022-12-11T07:29:12.769Z,20.72
2022-12-11T07:31:41.241Z,20.71
2022-12-11T07:34:12.679Z,20.69
2022-12-11T07:36:41.175Z,20.68
2022-12-11T07:39:12.531Z,20.67
2022-12-11T07:41:41.069Z,20.69
2022-12-11T07:44:12.647Z,20.68
2022-12-11T07:46:41.351Z,20.70
2022-12-11T07:49:09.759Z,20.72
2022-12-11T07:51:39.393Z,20.72
2022-12-11T07:54:11.967Z,20.72
2022-12-11T07:56:43.899Z,20.73
2022-12-11T07:59:12.731Z,20.74
2022-12-11T08:01:42.112Z,20.75
2022-12-11T08:04:15.406Z,20.75
2022-12-11T08:06:44.195Z,20.77
2022-12-11T08:09:21.074Z,20.76
2022-12-11T08:11:51.779Z,20.78
2022-12-11T08:14:20.739Z,20.78
2022-12-11T08:16:49.535Z,20.80
2022-12-11T08:19:18.127Z,20.81
2022-12-11T08:21:46.813Z,20.82
2022-12-11T08:24:16.434Z,20.83
2022-12-11T08:26:46.767Z,20.83
2022-12-11T08:29:16.538Z,20.84
2022-12-11T08:31:45.263Z,20.85
2022-12-11T08:34:14.146Z,20.86
2022-12-11T08:36:43.839Z,20.86
2022-12-11T08:39:12.325Z,20.86
2022-12-11T08:41:40.782Z,20.86
2022-12-11T08:44:16.286Z,20.84
2022-12-11T08:46:46.859Z,20.89
2022-12-11T08:49:15.305Z,20.89
2022-12-11T08:51:43.714Z,20.89
2022-12-11T08:54:12.340Z,20.90
2022-12-11T08:56:40.900Z,20.91
2022-12-11T08:59:09.358Z,20.92
2022-12-11T09:01:37.854Z,20.91
2022-12-11T09:04:07.727Z,20.91
2022-12-11T09:06:36.163Z,20.91
2022-12-11T09:09:05.127Z,20.90
2022-12-11T09:11:36.803Z,20.91
2022-12-11T09:14:07.831Z,20.91
2022-12-11T09:16:40.134Z,20.91
2022-12-11T09:19:13.644Z,20.92
2022-12-11T09:21:43.548Z,20.90
2022-12-11T09:24:13.493Z,20.89
2022-12-11T09:26:42.617Z,20.90
2022-12-11T09:29:12.947Z,20.89
2022-12-11T09:31:41.452Z,20.90
2022-12-11T09:34:13.341Z,20.90
2022-12-11T09:36:44.042Z,20.90
2022-12-11T09:39:14.132Z,20.90
2022-12-11T09:41:52.871Z,20.91
2022-12-11T09:44:31.687Z,20.90
2022-12-11T09:47:00.597Z,20.89
2022-12-11T09:49:36.280Z,20.90
2022-12-11T09:52:13.642Z,20.91
2022-12-11T09:54:48.811Z,20.90
2022-12-11T09:57:33.239Z,20.91
2022-12-11T10:00:11.330Z,20.91
2022-12-11T10:03:03.663Z,20.90
2022-12-11T10:05:43.761Z,20.89
2022-12-11T10:08:15.456Z,20.89
2022-12-11T10:10:52.594Z,20.90
2022-12-11T10:13:29.140Z,20.90
2022-12-11T10:16:05.047Z,20.90
2022-12-11T10:18:34.871Z,20.91
2022-12-11T10:21:05.540Z,20.91
2022-12-11T10:23:39.667Z,20.90
2022-12-11T10:26:12.142Z,20.88
2022-12-11T10:28:40.823Z,20.88
2022-12-11T10:31:17.002Z,20.89
2022-12-11T10:33:56.068Z,20.89
2022-12-11T10:36:32.465Z,20.90
2022-12-11T10:39:01.187Z,20.89
2022-12-11T10:41:39.078Z,20.89
2022-12-11T10:44:18.680Z,20.89
2022-12-11T10:46:48.911Z,20.89
2022-12-11T10:49:26.102Z,20.88
2022-12-11T10:51:57.088Z,20.87
2022-12-11T10:54:33.002Z,20.85
2022-12-11T10:57:04.170Z,20.85
2022-12-11T10:59:37.519Z,20.87
2022-12-11T11:02:08.610Z,20.91
2022-12-11T11:04:38.847Z,20.93
2022-12-11T11:07:15.373Z,20.98
2022-12-11T11:09:44.367Z,21.00
2022-12-11T11:12:21.506Z,21.02
2022-12-11T11:15:00.656Z,21.04
2022-12-11T11:17:33.830Z,21.07
2022-12-11T11:20:14.193Z,21.10
2022-12-11T11:22:46.728Z,21.11
2022-12-11T11:25:20.854Z,21.12
2022-12-11T11:27:52.405Z,21.14
2022-12-11T11:30:23.930Z,21.14
2022-12-11T11:32:55.345Z,21.15
2022-12-11T11:35:26.542Z,21.16
2022-12-11T11:38:03.350Z,21.18
2022-12-11T11:40:35.050Z,21.16
2022-12-11T11:43:14.049Z,21.17
2022-12-11T11:45:47.710Z,21.16
2022-12-11T11:48:29.576Z,21.17
2022-12-11T11:50:59.332Z,21.16
2022-12-11T11:53:32.912Z,21.16
2022-12-11T11:56:07.013Z,21.14
2022-12-11T11:58:40.553Z,21.14
2022-12-11T12:01:15.689Z,21.14
2022-12-11T12:03:44.743Z,21.13
2022-12-11T12:06:26.824Z,21.13
2022-12-11T12:09:13.031Z,21.12
2022-12-11T12:11:47.531Z,21.11
2022-12-11T12:14:51.193Z,21.09
2022-12-11T12:17:20.934Z,21.08
2022-12-11T12:19:55.970Z,21.08
2022-12-11T12:22:43.500Z,21.08
2022-12-11T12:25:23.195Z,21.07
2022-12-11T12:27:59.431Z,21.07
2022-12-11T12:30:37.870Z,21.07
2022-12-11T12:33:23.810Z,21.05
2022-12-11T12:36:06.553Z,21.04
2022-12-11T12:38:48.501Z,21.02
2022-12-11T12:41:23.386Z,21.04
2022-12-11T12:44:04.642Z,21.03
2022-12-11T12:46:45.893Z,21.03
2022-12-11T12:49:21.406Z,21.02
2022-12-11T12:51:52.341Z,21.00
2022-12-11T12:54:22.282Z,21.07
2022-12-11T12:56:52.323Z,21.07
2022-12-11T12:59:23.195Z,21.07
2022-12-11T13:01:56.907Z,21.08
2022-12-11T13:04:55.888Z,21.09
2022-12-11T13:07:29.838Z,21.10
2022-12-11T13:10:06.529Z,21.10
2022-12-11T13:12:43.435Z,21.06
2022-12-11T13:15:30.261Z,21.05
2022-12-11T13:17:59.683Z,21.02
2022-12-11T13:20:30.335Z,21.00
2022-12-11T13:23:19.029Z,21.02
2022-12-11T13:25:51.461Z,21.07
2022-12-11T13:28:28.327Z,21.14
2022-12-11T13:31:31.145Z,21.18
2022-12-11T13:34:10.267Z,21.22
2022-12-11T13:36:41.496Z,21.27
2022-12-11T13:39:19.059Z,21.33
2022-12-11T13:41:49.702Z,21.41
2022-12-11T13:44:25.627Z,21.45
2022-12-11T13:46:57.299Z,21.44
2022-12-11T13:49:28.945Z,21.48
2022-12-11T13:51:59.426Z,21.51
2022-12-11T13:54:31.613Z,21.55
2022-12-11T13:57:03.194Z,21.55
2022-12-11T13:59:35.566Z,21.54
2022-12-11T14:02:16.045Z,21.52
2022-12-11T14:04:45.162Z,21.50
2022-12-11T14:07:13.928Z,21.53
2022-12-11T14:09:45.416Z,21.55
2022-12-11T14:12:19.115Z,21.55
2022-12-11T14:14:52.554Z,21.53
2022-12-11T14:17:25.801Z,21.50
2022-12-11T14:19:55.593Z,21.49
2022-12-11T14:22:26.007Z,21.49
2022-12-11T14:24:56.521Z,21.48
2022-12-11T14:27:27.285Z,21.45
2022-12-11T14:29:57.559Z,21.45
2022-12-11T14:32:33.097Z,21.45
2022-12-11T14:35:05.386Z,21.44
2022-12-11T14:37:35.988Z,21.45
2022-12-11T14:40:10.435Z,21.44
2022-12-11T14:42:41.965Z,21.42
2022-12-11T14:45:20.807Z,21.39
2022-12-11T14:47:50.201Z,21.36
2022-12-11T14:50:22.286Z,21.36
2022-12-11T14:52:54.370Z,21.33
2022-12-11T14:55:27.042Z,21.31
2022-12-11T14:57:59.893Z,21.30
2022-12-11T15:00:32.137Z,21.29
2022-12-11T15:03:03.141Z,21.28
2022-12-11T15:05:38.835Z,21.27
2022-12-11T15:08:24.727Z,21.26
2022-12-11T15:11:04.042Z,21.26
2022-12-11T15:13:33.967Z,21.24
2022-12-11T15:16:05.272Z,21.22
2022-12-11T15:18:37.075Z,21.19
2022-12-11T15:21:09.485Z,21.20
2022-12-11T15:23:50.400Z,21.17
2022-12-11T15:26:19.848Z,21.15
2022-12-11T15:28:48.659Z,21.14
2022-12-11T15:31:29.777Z,21.12
2022-12-11T15:33:58.330Z,21.11
2022-12-11T15:36:34.223Z,21.11
2022-12-11T15:39:03.930Z,21.08
2022-12-11T15:41:34.529Z,21.08
2022-12-11T15:44:04.936Z,21.06
2022-12-11T15:46:38.147Z,21.02
2022-12-11T15:49:12.208Z,21.02
2022-12-11T15:51:43.092Z,21.02
2022-12-11T15:54:12.134Z,20.99
2022-12-11T15:56:40.889Z,20.99
2022-12-11T15:59:11.551Z,20.97
2022-12-11T16:01:41.408Z,20.95
2022-12-11T16:04:09.874Z,20.95
2022-12-11T16:06:38.360Z,20.94
2022-12-11T16:09:06.840Z,20.93
2022-12-11T16:11:35.263Z,20.92
2022-12-11T16:14:04.490Z,20.92
2022-12-11T16:16:33.411Z,20.89
2022-12-11T16:19:03.329Z,20.91
2022-12-11T16:21:31.810Z,20.90
2022-12-11T16:24:00.177Z,20.90
2022-12-11T16:26:28.985Z,20.89
2022-12-11T16:29:00.552Z,20.89
2022-12-11T16:31:29.869Z,20.89
2022-12-11T16:33:58.679Z,20.90
2022-12-11T16:36:28.665Z,20.89
2022-12-11T16:38:57.085Z,20.88
2022-12-11T16:41:27.849Z,20.88
2022-12-11T16:43:56.271Z,20.87
2022-12-11T16:46:25.966Z,20.87
2022-12-11T16:48:54.621Z,20.85
2022-12-11T16:51:23.143Z,20.85
2022-12-11T16:53:52.914Z,20.84
2022-12-11T16:56:21.391Z,20.82
2022-12-11T16:58:49.847Z,20.81
2022-12-11T17:01:18.399Z,20.79
2022-12-11T17:03:46.998Z,20.75
2022-12-11T17:06:18.255Z,20.73
2022-12-11T17:08:46.943Z,20.72
2022-12-11T17:11:19.618Z,20.72
2022-12-11T17:13:48.682Z,20.71
2022-12-11T17:16:18.014Z,20.73
2022-12-11T17:18:46.464Z,20.76
2022-12-11T17:21:17.605Z,20.78
2022-12-11T17:23:46.563Z,20.79
2022-12-11T17:26:16.637Z,20.79
2022-12-11T17:28:45.569Z,20.79
2022-12-11T17:31:16.721Z,20.80
2022-12-11T17:33:45.760Z,20.82
2022-12-11T17:36:16.418Z,20.83
2022-12-11T17:38:45.393Z,20.84
2022-12-11T17:41:20.497Z,20.85
2022-12-11T17:43:49.746Z,20.84
2022-12-11T17:46:19.497Z,20.83
2022-12-11T17:48:48.585Z,20.84
2022-12-11T17:51:21.844Z,20.82
2022-12-11T17:53:50.670Z,20.83
2022-12-11T17:56:20.506Z,20.83
2022-12-11T17:58:49.017Z,20.83
2022-12-11T18:01:18.031Z,20.83
2022-12-11T18:03:46.846Z,20.83
2022-12-11T18:06:17.134Z,20.84
2022-12-11T18:08:46.202Z,20.82
2022-12-11T18:11:17.350Z,20.84
2022-12-11T18:13:47.219Z,20.84
2022-12-11T18:16:17.881Z,20.85
2022-12-11T18:18:47.024Z,20.84
2022-12-11T18:21:17.831Z,20.84
2022-12-11T18:23:46.692Z,20.85
2022-12-11T18:26:15.491Z,20.85
2022-12-11T18:28:44.987Z,20.83
2022-12-11T18:31:15.602Z,20.84
2022-12-11T18:33:45.436Z,20.84
2022-12-11T18:36:15.800Z,20.83
2022-12-11T18:38:45.406Z,20.83
2022-12-11T18:41:14.459Z,20.83
2022-12-11T18:43:43.525Z,20.83
2022-12-11T18:46:15.046Z,20.83
2022-12-11T18:48:44.387Z,20.83
2022-12-11T18:51:14.986Z,20.84
2022-12-11T18:53:45.245Z,20.85
2022-12-11T18:56:16.575Z,20.87
2022-12-11T18:58:45.758Z,20.88
2022-12-11T19:01:19.082Z,20.89
2022-12-11T19:03:47.912Z,20.91
2022-12-11T19:06:18.452Z,20.93
2022-12-11T19:08:47.197Z,20.96
2022-12-11T19:11:16.862Z,20.94
2022-12-11T19:13:46.568Z,20.86
2022-12-11T19:16:22.100Z,20.80
2022-12-11T19:18:51.032Z,20.76
2022-12-11T19:21:19.975Z,20.71
2022-12-11T19:23:49.320Z,20.68
2022-12-11T19:26:20.139Z,20.74
2022-12-11T19:28:50.515Z,20.78
2022-12-11T19:31:22.376Z,20.85
2022-12-11T19:33:51.516Z,20.87
2022-12-11T19:36:21.658Z,20.94
2022-12-11T19:38:50.691Z,20.97
2022-12-11T19:41:21.540Z,21.00
2022-12-11T19:43:50.522Z,21.04
2022-12-11T19:46:21.415Z,21.06
2022-12-11T19:48:50.581Z,21.07
2022-12-11T19:51:21.044Z,21.10
2022-12-11T19:53:50.483Z,21.12
2022-12-11T19:56:20.747Z,21.14
2022-12-11T19:58:49.735Z,21.15
2022-12-11T20:01:25.674Z,21.16
2022-12-11T20:03:55.306Z,21.20
2022-12-11T20:06:24.565Z,21.20
2022-12-11T20:08:53.166Z,21.21
2022-12-11T20:11:21.746Z,21.22
2022-12-11T20:13:50.632Z,21.21
2022-12-11T20:16:39.124Z,21.22
2022-12-11T20:19:10.562Z,21.23
2022-12-11T20:21:39.002Z,21.25
2022-12-11T20:24:08.016Z,21.28
2022-12-11T20:26:38.082Z,21.28
2022-12-11T20:29:08.358Z,21.29
2022-12-11T20:31:37.683Z,21.30
2022-12-11T20:34:07.494Z,21.31
2022-12-11T20:36:37.276Z,21.32
2022-12-11T20:39:06.032Z,21.33
2022-12-11T20:41:34.480Z,21.35
2022-12-11T20:44:02.918Z,21.35
2022-12-11T20:46:31.510Z,21.36
2022-12-11T20:48:59.939Z,21.35
2022-12-11T20:51:29.086Z,21.36
2022-12-11T20:53:59.798Z,21.36
2022-12-11T20:56:30.262Z,21.37
2022-12-11T20:59:00.507Z,21.36
2022-12-11T21:01:31.755Z,21.39
2022-12-11T21:04:00.628Z,21.38
2022-12-11T21:06:31.654Z,21.37
2022-12-11T21:09:03.219Z,21.36
2022-12-11T21:11:32.063Z,21.35
2022-12-11T21:14:00.949Z,21.35
2022-12-11T21:16:29.666Z,21.37
2022-12-11T21:18:59.126Z,21.36
2022-12-11T21:21:27.823Z,21.36
2022-12-11T21:23:56.251Z,21.35
2022-12-11T21:26:26.144Z,21.35
2022-12-11T21:28:54.859Z,21.34
2022-12-11T21:31:23.361Z,21.33
2022-12-11T21:33:52.073Z,21.33
2022-12-11T21:36:20.500Z,21.31
2022-12-11T21:38:49.611Z,21.28
2022-12-11T21:41:20.794Z,21.31
2022-12-11T21:44:56.523Z,21.26
2022-12-11T21:46:41.604Z,21.25
2022-12-11T21:49:10.063Z,21.23
2022-12-11T21:51:46.740Z,21.22
2022-12-11T21:54:18.770Z,21.19
2022-12-11T21:56:48.095Z,21.17
2022-12-11T21:59:17.925Z,21.15
2022-12-11T22:01:47.003Z,21.14
2022-12-11T22:04:16.622Z,21.11
2022-12-11T22:06:47.240Z,21.08
2022-12-11T22:09:17.720Z,21.04
2022-12-11T22:11:47.279Z,21.01
2022-12-11T22:14:18.658Z,20.95
2022-12-11T22:16:47.611Z,20.97
2022-12-11T22:19:16.143Z,20.97
2022-12-11T22:21:44.538Z,20.96
2022-12-11T22:24:14.079Z,20.95
2022-12-11T22:26:42.607Z,20.92
2022-12-11T22:29:11.146Z,20.90
2022-12-11T22:31:40.953Z,20.93
2022-12-11T22:34:09.634Z,20.92
2022-12-11T22:36:38.245Z,20.92
2022-12-11T22:39:06.950Z,20.91
2022-12-11T22:41:38.307Z,20.90
2022-12-11T22:44:06.872Z,20.87
2022-12-11T22:46:35.404Z,20.87
2022-12-11T22:49:05.290Z,20.83
2022-12-11T22:51:33.891Z,20.82
2022-12-11T22:54:02.416Z,20.81
2022-12-11T22:56:30.981Z,20.79
2022-12-11T22:58:59.561Z,20.77
2022-12-11T23:01:29.119Z,20.76
2022-12-11T23:03:57.572Z,20.74
2022-12-11T23:06:27.404Z,20.73
2022-12-11T23:08:59.060Z,20.71
2022-12-11T23:11:29.980Z,20.70
2022-12-11T23:13:58.826Z,20.66
2022-12-11T23:16:28.668Z,20.66
2022-12-11T23:18:58.136Z,20.63
2022-12-11T23:21:28.547Z,20.61
2022-12-11T23:23:58.383Z,20.59
2022-12-11T23:26:29.239Z,20.57
2022-12-11T23:28:59.212Z,20.56
2022-12-11T23:31:28.478Z,20.55
2022-12-11T23:33:56.964Z,20.54
2022-12-11T23:36:26.427Z,20.52
2022-12-11T23:38:56.301Z,20.51
2022-12-11T23:41:24.814Z,20.52
2022-12-11T23:43:53.246Z,20.50
2022-12-11T23:46:23.822Z,20.51
2022-12-11T23:48:53.483Z,20.50
2022-12-11T23:51:23.695Z,20.50
2022-12-11T23:53:53.150Z,20.49
2022-12-11T23:56:25.433Z,20.49
2022-12-11T23:58:54.923Z,20.50
